Map

Track Data

SID SEASON NUMBER BASIN SUBBASIN NAME ISO_TIME NATURE LAT LON WMO_WIND WMO_PRES WMO_AGENCY TRACK_TYPE DIST2LAND LANDFALL IFLAG USA_AGENCY USA_ATCF_ID USA_LAT USA_LON USA_RECORD USA_STATUS USA_WIND USA_PRES USA_SSHS USA_R34_NE USA_R34_SE USA_R34_SW USA_R34_NW USA_R50_NE USA_R50_SE USA_R50_SW USA_R50_NW USA_R64_NE USA_R64_SE USA_R64_SW USA_R64_NW USA_POCI USA_ROCI USA_RMW USA_EYE TOKYO_LAT TOKYO_LON TOKYO_GRADE TOKYO_WIND TOKYO_PRES TOKYO_R50_DIR TOKYO_R50_LONG TOKYO_R50_SHORT TOKYO_R30_DIR TOKYO_R30_LONG TOKYO_R30_SHORT TOKYO_LAND CMA_LAT CMA_LON CMA_CAT CMA_WIND CMA_PRES HKO_LAT HKO_LON HKO_CAT HKO_WIND HKO_PRES NEWDELHI_LAT NEWDELHI_LON NEWDELHI_GRADE NEWDELHI_WIND NEWDELHI_PRES NEWDELHI_CI NEWDELHI_DP NEWDELHI_POCI REUNION_LAT REUNION_LON REUNION_TYPE REUNION_WIND REUNION_PRES REUNION_TNUM REUNION_CI REUNION_RMW REUNION_R34_NE REUNION_R34_SE REUNION_R34_SW REUNION_R34_NW REUNION_R50_NE REUNION_R50_SE REUNION_R50_SW REUNION_R50_NW REUNION_R64_NE REUNION_R64_SE REUNION_R64_SW REUNION_R64_NW BOM_LAT BOM_LON BOM_TYPE BOM_WIND BOM_PRES BOM_TNUM BOM_CI BOM_RMW BOM_R34_NE BOM_R34_SE BOM_R34_SW BOM_R34_NW BOM_R50_NE BOM_R50_SE BOM_R50_SW BOM_R50_NW BOM_R64_NE BOM_R64_SE BOM_R64_SW BOM_R64_NW BOM_ROCI BOM_POCI BOM_EYE BOM_POS_METHOD BOM_PRES_METHOD NADI_LAT NADI_LON NADI_CAT NADI_WIND NADI_PRES WELLINGTON_LAT WELLINGTON_LON WELLINGTON_WIND WELLINGTON_PRES DS824_LAT DS824_LON DS824_STAGE DS824_WIND DS824_PRES TD9636_LAT TD9636_LON TD9636_STAGE TD9636_WIND TD9636_PRES TD9635_LAT TD9635_LON TD9635_WIND TD9635_PRES TD9635_ROCI NEUMANN_LAT NEUMANN_LON NEUMANN_CLASS NEUMANN_WIND NEUMANN_PRES MLC_LAT MLC_LON MLC_CLASS MLC_WIND MLC_PRES USA_GUST BOM_GUST BOM_GUST_PER REUNION_GUST REUNION_GUST_PER USA_SEAHGT USA_SEARAD_NE USA_SEARAD_SE USA_SEARAD_SW USA_SEARAD_NW STORM_SPEED STORM_DIR
1972097S13084 1972 30 SI MM CAROL 1972-04-06 00:00:00 TS -13.0000 84.0000 994 bom main 2073 2073 ______O__O__O_ -1 -13.0000 84.0000 994 -13.0000 84.0000 TC 40 994 -13.0000 84.0000 TC 40 994 2 270
1972097S13084 1972 30 SI MM CAROL 1972-04-06 03:00:00 TS -13.0000 83.9000 994 bom main 2081 2081 ______O__P__P_ -1 -13.0000 83.9000 994 -13.0000 83.9000 TC 40 993 -13.0000 83.9000 TC 40 993 2 270
1972097S13084 1972 30 SI MM CAROL 1972-04-06 06:00:00 TS -13.0000 83.8000 993 bom main 2090 2090 ______O__O__O_ -1 -13.0000 83.8000 993 -13.0000 83.8000 TC 40 993 -13.0000 83.8000 TC 40 993 2 270
1972097S13084 1972 30 SI MM CAROL 1972-04-06 09:00:00 TS -13.0000 83.7000 993 bom main 2099 2099 ______O__P__P_ -1 -13.0000 83.7000 993 -13.0000 83.7000 TC 42 992 -13.0000 83.7000 TC 42 992 2 270
1972097S13084 1972 30 SI MM CAROL 1972-04-06 12:00:00 TS -13.0000 83.6000 992 bom main 2108 2108 ______O__O__O_ -1 -13.0000 83.6000 992 -13.0000 83.6000 TC 45 992 -13.0000 83.6000 TC 45 992 2 270
1972097S13084 1972 30 SI MM CAROL 1972-04-06 15:00:00 TS -13.0000 83.5000 992 bom main 2117 2117 ______O__P__P_ -1 -13.0000 83.5000 992 -13.0000 83.5000 TC 45 991 -13.0000 83.5000 TC 45 991 2 270
1972097S13084 1972 30 SI MM CAROL 1972-04-06 18:00:00 TS -13.0000 83.4000 991 bom main 2125 2125 ______O__O__O_ -1 -13.0000 83.4000 991 -13.0000 83.4000 TC 45 991 -13.0000 83.4000 TC 45 991 2 275
1972097S13084 1972 30 SI MM CAROL 1972-04-06 21:00:00 TS -12.9850 83.3100 991 bom main 2134 2134 ______O__P__P_ -1 -13.0000 83.3000 991 -12.9775 83.3149 TC 45 990 -12.9775 83.3149 TC 45 990 2 270
1972097S13084 1972 30 SI MM CAROL 1972-04-07 00:00:00 TS -13.0000 83.2000 990 bom main 2136 2135 ______O__O__O_ -1 -13.0000 83.2000 990 -13.0000 83.2000 TC 45 990 -13.0000 83.2000 TC 45 990 3 240
1972097S13084 1972 30 SI MM CAROL 1972-04-07 03:00:00 TS -13.1567 83.0100 989 bom main 2156 2154 ______O__P__P_ -1 -13.2000 83.0000 989 -13.1350 83.0151 TC 47 989 -13.1350 83.0151 TC 47 989 5 232
1972097S13084 1972 30 SI MM CAROL 1972-04-07 06:00:00 TS -13.3000 82.8000 988 bom main 2164 2163 ______O__O__O_ -1 -13.3000 82.8000 988 -13.3000 82.8000 TC 50 988 -13.3000 82.8000 TC 50 988 5 239
1972097S13084 1972 30 SI MM CAROL 1972-04-07 09:00:00 TS -13.4050 82.5900 987 bom main 2173 2172 ______O__P__P_ -1 -13.4000 82.6000 987 -13.4075 82.5850 TC 50 987 -13.4075 82.5850 TC 52 987 4 243
1972097S13084 1972 30 SI MM CAROL 1972-04-07 12:00:00 TS -13.5000 82.4000 986 bom main 2182 2181 ______O__O__O_ -1 -13.5000 82.4000 986 -13.5000 82.4000 TC 50 986 -13.5000 82.4000 TC 55 986 3 237
1972097S13084 1972 30 SI MM CAROL 1972-04-07 15:00:00 TS -13.5950 82.2900 985 bom main 2192 2191 ______O__P__P_ -1 -13.6000 82.3000 985 -13.5925 82.2850 TC 52 985 -13.5925 82.2850 TC 55 985 3 224
1972097S13084 1972 30 SI MM CAROL 1972-04-07 18:00:00 TS -13.7000 82.2000 984 bom main 2203 2203 ______O__O__O_ -1 -13.7000 82.2000 984 -13.7000 82.2000 TC 55 984 -13.7000 82.2000 TC 55 984 3 218
1972097S13084 1972 30 SI MM CAROL 1972-04-07 21:00:00 TS -13.8183 82.1100 982 bom main 2213 2213 ______O__P__P_ -1 -13.8000 82.1000 982 -13.8275 82.1149 TC 57 982 -13.8275 82.1149 TC 57 982 4 213
1972097S13084 1972 30 SI MM CAROL 1972-04-08 00:00:00 TS -14.0000 82.0000 980 bom main 2234 2234 ______O__O__O_ -1 -14.0000 82.0000 980 -14.0000 82.0000 TC 60 980 -14.0000 82.0000 TC 60 980 5 217
1972097S13084 1972 30 SI MM CAROL 1972-04-08 03:00:00 TS -14.2184 81.8000 978 bom main 2255 2255 ______O__P__P_ -1 -14.2000 81.8000 978 -14.2275 81.8001 TC 62 978 -14.2275 81.8001 TC 62 978 6 218
1972097S13084 1972 30 SI MM CAROL 1972-04-08 06:00:00 TS -14.5000 81.6000 976 bom main 2288 2288 ______O__O__O_ -1 -14.5000 81.6000 976 -14.5000 81.6000 TC 65 976 -14.5000 81.6000 TC 65 976 7 207
1972097S13084 1972 30 SI MM CAROL 1972-04-08 09:00:00 TS -14.8050 81.4900 974 bom main 2321 2321 ______O__P__P_ -1 -14.8000 81.5000 974 -14.8075 81.4849 TC 67 974 -14.8075 81.4849 TC 67 974 6 198
1972097S13084 1972 30 SI MM CAROL 1972-04-08 12:00:00 TS -15.1000 81.4000 972 bom main 2354 2354 ______O__O__O_ -1 -15.1000 81.4000 972 -15.1000 81.4000 TC 70 972 -15.1000 81.4000 TC 70 972 5 200
1972097S13084 1972 30 SI MM CAROL 1972-04-08 15:00:00 TS -15.3050 81.3000 970 bom main 2376 2376 ______O__P__P_ -1 -15.3000 81.3000 970 -15.3075 81.2999 TC 72 970 -15.3075 81.2999 TC 72 970 4 206
1972097S13084 1972 30 SI MM CAROL 1972-04-08 18:00:00 TS -15.5000 81.2000 968 bom main 2398 2398 ______O__O__O_ -1 -15.5000 81.2000 968 -15.5000 81.2000 TC 75 968 -15.5000 81.2000 TC 75 968 5 205
1972097S13084 1972 30 SI MM CAROL 1972-04-08 21:00:00 TS -15.7433 81.0850 966 bom main 2420 2420 ______O__P__P_ -1 -15.7000 81.1000 966 -15.7650 81.0776 TC 77 966 -15.7650 81.0776 TC 77 966 5 201
1972097S13084 1972 30 SI MM CAROL 1972-04-09 00:00:00 TS -16.0000 81.0000 965 bom main 2453 2453 ______O__O__O_ -1 -16.0000 81.0000 965 4 -16.0000 81.0000 TC 80 965 -16.0000 81.0000 TC 80 965 4 191
1972097S13084 1972 30 SI MM CAROL 1972-04-09 03:00:00 TS -16.1200 81.0183 965 bom main 2464 2464 ______O__P__P_ -1 -16.1000 81.0000 965 -16.1225 81.0200 TC 80 965 -16.1375 81.0349 TC 80 965 2 153
1972097S13084 1972 30 SI MM CAROL 1972-04-09 06:00:00 TS -16.2000 81.1000 965 bom main 2476 2476 ______O__O__O_ -1 -16.2000 81.1000 965 -16.2000 81.1000 TC 80 965 -16.2000 81.1000 TC 80 965 2 137
1972097S13084 1972 30 SI MM CAROL 1972-04-09 09:00:00 TS -16.2617 81.1567 965 bom main 2487 2487 ______O__P__P_ -1 -16.3000 81.2000 965 -16.3000 81.1925 TC 77 965 -16.1850 81.0776 TC 80 965 2 137
1972097S13084 1972 30 SI MM CAROL 1972-04-09 12:00:00 TS -16.3333 81.2333 966 bom main 2487 2487 ______O__O__O_ -1 -16.4000 81.3000 966 -16.4000 81.3000 TC 75 966 -16.2000 81.1000 TC 80 966 3 134
1972097S13084 1972 30 SI MM CAROL 1972-04-09 15:00:00 TS -16.4517 81.3616 966 bom main 2510 2510 ______O__P__P_ -1 -16.5000 81.4000 966 -16.4850 81.4000 TC 75 966 -16.3701 81.2849 TC 80 966 4 136
1972097S13084 1972 30 SI MM CAROL 1972-04-09 18:00:00 TS -16.6000 81.5000 967 bom main 2522 2522 ______O__O__O_ -1 -16.6000 81.5000 967 -16.6000 81.5000 TC 75 967 -16.6000 81.5000 TC 80 967 4 147
1972097S13084 1972 30 SI MM CAROL 1972-04-09 21:00:00 TS -16.7850 81.5901 967 bom main 2537 2534 ______O__P__P_ -1 -16.8000 81.6000 967 -16.7699 81.5776 TC 75 967 -16.7849 81.5927 TC 77 967 4 155
1972097S13084 1972 30 SI MM CAROL 1972-04-10 00:00:00 TS -17.0000 81.7000 968 bom main 2542 2540 ______O__O__O_ -1 -17.0000 81.7000 968 -17.0000 81.7000 TC 75 968 -17.0000 81.7000 TC 75 968 6 149
1972097S13084 1972 30 SI MM CAROL 1972-04-10 03:00:00 TS -17.3050 81.9132 968 bom main 2551 2550 ______O__P__P_ -1 -17.3000 81.9000 968 -17.2850 81.9200 TC 75 968 -17.3300 81.9198 TC 75 968 8 141
1972097S13084 1972 30 SI MM CAROL 1972-04-10 06:00:00 TS -17.6000 82.2000 968 bom main 2550 2542 ______O__O__O_ -1 -17.6000 82.2000 968 -17.6000 82.2000 TC 75 968 -17.6000 82.2000 TC 75 968 7 131
1972097S13084 1972 30 SI MM CAROL 1972-04-10 09:00:00 TS -17.7950 82.4952 969 bom main 2542 2534 ______O__P__P_ -1 -17.9000 82.5000 969 -17.9150 82.4925 TC 75 968 -17.5700 82.4931 TC 75 968 7 125
1972097S13084 1972 30 SI MM CAROL 1972-04-10 12:00:00 TS -18.0000 82.8000 969 bom main 2534 2534 ______O__O__O_ -1 -18.2000 82.8000 969 -18.2000 82.8000 TC 75 969 -17.6000 82.8000 TC 75 969 8 131
1972097S13084 1972 30 SI MM CAROL 1972-04-10 15:00:00 TS -18.2853 83.0971 969 bom main 2535 2535 ______O__P__P_ -1 -18.4000 83.1000 969 -18.4084 83.0991 TC 72 969 -18.0474 83.0922 TC 75 969 8 137
1972097S13084 1972 30 SI MM CAROL 1972-04-10 18:00:00 TS -18.6000 83.4000 970 bom main 2537 2530 ______O__O__O_ -1 -18.6000 83.4000 970 -18.6000 83.4000 TC 70 970 -18.6000 83.4000 TC 75 970 8 135
1972097S13084 1972 30 SI MM CAROL 1972-04-10 21:00:00 TS -18.8859 83.7237 main 2540 2533 ______P__P__P_ -1 -18.8347 83.7097 -18.8429 83.7112 TC -18.9800 83.7501 TC 75 970 8 133
1972097S13084 1972 30 SI MM CAROL 1972-04-11 00:00:00 TS -19.1759 84.0523 main 2537 2537 ______P__P__O_ -1 -19.1078 84.0278 -19.1198 84.0290 TC -19.3000 84.1000 TC 75 971 9 134
1972097S13084 1972 30 SI MM CAROL 1972-04-11 03:00:00 TS -19.4832 84.3693 main 2542 2542 ______P__P__P_ -1 -19.4151 84.3500 -19.4273 84.3502 TC -19.6074 84.4077 TC 72 972 9 137
1972097S13084 1972 30 SI MM CAROL 1972-04-11 06:00:00 TS -19.8048 84.6812 main 2548 2548 ______P__P__O_ -1 -19.7523 84.6723 -19.7620 84.6714 TC -19.9000 84.7000 TC 70 973 9 138
1972097S13084 1972 30 SI MM CAROL 1972-04-11 09:00:00 TS -20.1403 84.9932 main 2555 2555 ______P__P__P_ -1 -20.1153 84.9904 -20.1207 84.9891 TC -20.1849 85.0002 TC 70 973 9 140
1972097S13084 1972 30 SI MM CAROL 1972-04-11 12:00:00 TS -20.5000 85.3000 974 bom main 2571 2571 ______O__O__O_ -1 -20.5000 85.3000 974 -20.5000 85.3000 TC 65 974 -20.5000 85.3000 TC 70 974 10 143
1972097S13084 1972 30 SI MM CAROL 1972-04-11 15:00:00 TS -20.8983 85.6004 975 bom main 2589 2589 ______O__P__P_ -1 -20.9000 85.6000 975 -20.9023 85.6013 TC 65 975 -20.8924 85.6000 TC 67 975 10 145
1972097S13084 1972 30 SI MM CAROL 1972-04-11 18:00:00 TS -21.3000 85.9000 976 bom main 2608 2608 ______O__O__O_ -1 -21.3000 85.9000 976 -21.3000 85.9000 TC 65 976 -21.3000 85.9000 TC 65 976 10 144
1972097S13084 1972 30 SI MM CAROL 1972-04-11 21:00:00 TS -21.6917 86.2149 978 bom main 2628 2622 ______O__P__P_ -1 -21.7000 86.2000 978 -21.6875 86.2224 TC 62 978 -21.6875 86.2224 TC 62 978 9 141
1972097S13084 1972 30 SI MM CAROL 1972-04-12 00:00:00 TS -22.0000 86.5000 980 bom main 2631 2629 ______O__O__O_ -1 -22.0000 86.5000 980 -22.0000 86.5000 TC 60 980 -22.0000 86.5000 TC 60 980 6 141
1972097S13084 1972 30 SI MM CAROL 1972-04-12 03:00:00 TS -22.1916 86.6435 983 bom main 2636 2627 ______O__P__P_ -1 -22.2000 86.6000 983 -22.1874 86.6653 TC 55 983 -22.1874 86.6653 TC 57 983 4 137
1972097S13084 1972 30 SI MM CAROL 1972-04-12 06:00:00 TS -22.3000 86.8000 986 bom main 2627 2618 ______O__O__O_ -1 -22.3000 86.8000 986 -22.3000 86.8000 TC 50 986 -22.3000 86.8000 TC 55 986 4 123
1972097S13084 1972 30 SI MM CAROL 1972-04-12 09:00:00 TS -22.4050 86.9950 989 bom main 2618 2609 ______O__P__P_ -1 -22.4000 87.0000 989 -22.4075 86.9925 TC 47 989 -22.4075 86.9925 TC 50 984 4 118
1972097S13084 1972 30 SI MM CAROL 1972-04-12 12:00:00 TS -22.5000 87.2000 992 bom main 2609 2601 ______O__O__O_ -1 -22.5000 87.2000 992 -22.5000 87.2000 TC 45 992 -22.5000 87.2000 TC 45 982 4 117
1972097S13084 1972 30 SI MM CAROL 1972-04-12 15:00:00 TS -22.5950 87.4000 994 bom main 2601 2592 ______O__P__P_ -1 -22.6000 87.4000 994 -22.5925 87.4001 TC 40 994 -22.5925 87.4001 TC 40 989 4 118
1972097S13084 1972 30 SI MM CAROL 1972-04-12 18:00:00 TS -22.7000 87.6000 996 bom main 2592 2584 ______O__O__O_ -1 -22.7000 87.6000 996 -22.7000 87.6000 TC 35 996 -22.7000 87.6000 TC 35 996 4 124
1972097S13084 1972 30 SI MM CAROL 1972-04-12 21:00:00 TS -22.8130 87.7504 998 bom main 2584 2576 ______O__P__P_ -1 -22.8000 87.8000 998 -22.8194 87.7256 TC 32 998 -22.8194 87.7256 TC 32 998 5 129
1972097S13084 1972 30 SI MM CAROL 1972-04-13 00:00:00 TS -23.0000 88.0000 1000 bom main 2576 2509 ______O__O__O_ -1 -23.0000 88.0000 1000 -23.0000 88.0000 TC 30 1000 -23.0000 88.0000 TC 30 1000 9 119
1972097S13084 1972 30 SI MM CAROL 1972-04-13 03:00:00 TS -23.2753 88.6500 1000 bom main 2509 2422 ______O__P__P_ -1 -23.3000 88.7000 1000 -23.2629 88.6249 TC 30 1000 -23.2629 88.6249 TC 27 1000 14 115
1972097S13084 1972 30 SI MM CAROL 1972-04-13 06:00:00 TS -23.6000 89.4000 1001 bom main 2422 2344 ______O__O__O_ -1 -23.6000 89.4000 1001 -23.6000 89.4000 TC 30 1001 -23.6000 89.4000 TC 25 1001 15 118
1972097S13084 1972 30 SI WA CAROL 1972-04-13 09:00:00 TS -23.9896 90.0902 1001 bom main 2344 2266 ______O__P__P_ -1 -24.0000 90.1000 1001 -23.9845 90.0854 TC 27 1001 -23.9845 90.0854 TC 25 1001 15 122
1972097S13084 1972 30 SI WA CAROL 1972-04-13 12:00:00 TS -24.4000 90.8000 1002 bom main 2266 2189 ______O__O__O_ -1 -24.4000 90.8000 1002 -24.4000 90.8000 TC 25 1002 -24.4000 90.8000 TC 25 1002 16 121
1972097S13084 1972 30 SI WA CAROL 1972-04-13 15:00:00 TS -24.7999 91.5903 1002 bom main 2179 2092 ______O__P__P_ -1 -24.8000 91.6000 1002 -24.7998 91.5854 TC 25 1002 -24.7998 91.5854 TC 25 1002 17 119
1972097S13084 1972 30 SI WA CAROL 1972-04-13 18:00:00 TS -25.2000 92.4000 1003 bom main 2092 2007 ______O__O__O_ -1 -25.2000 92.4000 1003 -25.2000 92.4000 TC 25 1003 -25.2000 92.4000 TC 25 1003 17 119
1972097S13084 1972 30 SI WA CAROL 1972-04-13 21:00:00 TS -25.6005 93.2027 1003 bom main 2007 1923 ______O__P__P_ -1 -25.6000 93.2000 1003 -25.6007 93.2040 TC 22 1003 -25.6007 93.2040 TC 22 1003 17 119
1972097S13084 1972 30 SI WA CAROL 1972-04-14 00:00:00 TS -26.0000 94.0000 1004 bom main 1923 ______O__O__O_ -1 -26.0000 94.0000 1004 -26.0000 94.0000 TC 20 1004 -26.0000 94.0000 TC 20 1004 16 119

About IBTrACS Database

This database is a web-friendly format of International Best Track Archive for Climate Stewardship (IBTrACS), a global best track data archive curated by NOAA dating back to 1842.

Updated: 2021-12-06